Bookmark and Share
Track history (hours):
 

Fesco Vladimir

Last reported at 2014-Apr-18 00:33 UTC. Time now 2014-Apr-18 08:10 UTC.
Position N 55°54' E 016°19'.

Length 184 m; draft 9.8 m.

Type: Ship (hazmat cat A). MMSI: 209777000.

NotesDate/timePositionNaut miles runAvg speedWind from/ knotsBaromVisibWave heightAir tempDewpointWater temp
2014-Apr-18 00:33N 55°54' E 016°19'2016.2
2014-Apr-17 23:19N 55°44' E 015°48'1216.3
2014-Apr-17 22:34N 55°38' E 015°29'1615.9
2014-Apr-17 21:33N 55°31' E 015°04'1616.0
2014-Apr-17 20:33N 55°23' E 014°40'1616.2
2014-Apr-17 19:34N 55°10' E 014°22'1616.1
2014-Apr-17 18:34N 54°59' E 014°01'1616.3
2014-Apr-17 17:34N 54°54' E 013°35'1615.7
2014-Apr-17 16:34N 54°49' E 013°09'1615.6
2014-Apr-17 15:34N 54°44' E 012°43'1615.7
2014-Apr-17 14:34N 54°35' E 012°21'1414.5
2014-Apr-17 13:34N 54°25' E 012°03'1514.9
2014-Apr-17 12:34N 54°27' E 011°38'1515.1
2014-Apr-17 11:34N 54°34' E 011°15'58 7.9
2014-Apr-17 04:10N 54°17' E 009°39'4 7.0
2014-Apr-17 03:33N 54°13' E 009°36'6 6.1
2014-Apr-17 02:33N 54°10' E 009°26'6 6.1
2014-Apr-17 01:33N 54°06' E 009°20'5 4.9
2014-Apr-17 00:33N 54°01' E 009°18'6 6.4
2014-Apr-16 23:33N 53°56' E 009°12'3 2.8
2014-Apr-16 22:33N 53°54' E 009°09'1 1.5
2014-Apr-16 21:33N 53°53' E 009°06'3 3.2
2014-Apr-16 20:33N 53°53' E 009°12'1313.1
2014-Apr-16 19:34N 53°44' E 009°27'1515.2
2014-Apr-16 18:33N 53°34' E 009°46'5 4.8
2014-Apr-16 17:32N 53°32' E 009°54'0 0.0
2014-Apr-16 16:29N 53°32' E 009°54'0 0.0
2014-Apr-16 15:29N 53°32' E 009°54'0 0.0
2014-Apr-16 14:32N 53°32' E 009°54'0 0.0
2014-Apr-16 13:29N 53°32' E 009°54'0 0.0
2014-Apr-16 12:32N 53°32' E 009°54'0 0.0
2014-Apr-16 11:29N 53°32' E 009°54'0 0.0
2014-Apr-16 10:32N 53°32' E 009°54'0 0.0
2014-Apr-16 09:32N 53°32' E 009°54'0 0.0
2014-Apr-16 08:32N 53°32' E 009°54'0 0.0
2014-Apr-16 07:29N 53°32' E 009°54'0 0.0
2014-Apr-16 06:32N 53°32' E 009°54'0 0.0
2014-Apr-16 05:32N 53°32' E 009°54'0 0.0
2014-Apr-16 04:29N 53°32' E 009°54'0 0.0
2014-Apr-16 03:29N 53°32' E 009°54'0 0.0
2014-Apr-16 02:32N 53°32' E 009°54'0 0.0
2014-Apr-16 01:26N 53°32' E 009°54'1 1.3
2014-Apr-16 00:33N 53°33' E 009°53'1312.7
2014-Apr-15 23:33N 53°37' E 009°33'1716.7
2014-Apr-15 22:33N 53°51' E 009°18'1514.7
2014-Apr-15 21:33N 53°50' E 008°53'1514.6
2014-Apr-15 20:33N 53°58' E 008°32'1515.0
2014-Apr-15 19:33N 53°59' E 008°07'1615.7
2014-Apr-15 18:33N 53°56' E 007°41'1515.3
2014-Apr-15 17:33N 53°52' E 007°15'2014.8
2014-Apr-15 16:12N 53°47' E 006°43'914.1
2014-Apr-15 15:32N 53°45' E 006°27'1414.2
2014-Apr-15 14:33N 53°41' E 006°05'14 7.1
2014-Apr-15 12:34N 53°36' E 005°42'1413.9
2014-Apr-15 11:34N 53°32' E 005°20'1413.8
2014-Apr-15 10:34N 53°27' E 004°58'1312.9
2014-Apr-15 09:34N 53°20' E 004°40'1313.3
2014-Apr-15 08:34N 53°08' E 004°30'1313.0
2014-Apr-15 07:34N 52°57' E 004°19'1313.3
2014-Apr-15 06:34N 52°45' E 004°09'1413.8
2014-Apr-15 05:34N 52°33' E 003°56'3015.0
2014-Apr-15 03:34N 52°03' E 003°54'9 8.7
2014-Apr-15 02:34N 51°57' E 004°05'0 0.4
2014-Apr-15 01:32N 51°58' E 004°04'0 0.0
2014-Apr-14 23:32N 51°58' E 004°04'0 0.0
2014-Apr-14 22:32N 51°58' E 004°04'0 0.0
2014-Apr-14 21:32N 51°58' E 004°04'0 0.0
2014-Apr-14 20:29N 51°58' E 004°04'0 0.0
2014-Apr-14 19:32N 51°58' E 004°04'0 0.0
2014-Apr-14 17:32N 51°58' E 004°04'0 0.0
2014-Apr-14 15:32N 51°58' E 004°04'0 0.0
2014-Apr-14 14:32N 51°58' E 004°04'0 0.0
2014-Apr-14 13:32N 51°58' E 004°04'0 0.0
2014-Apr-14 11:32N 51°58' E 004°04'0 0.2
2014-Apr-14 10:32N 51°58' E 004°05'8 8.2
2014-Apr-14 09:34N 52°02' E 003°53'7 7.1
2014-Apr-14 08:33N 51°59' E 003°43'5 0.5
2014-Apr-13 22:33N 51°56' E 003°36'0 0.1
2014-Apr-13 21:33N 51°56' E 003°36'1 0.1
2014-Apr-13 11:13N 51°55' E 003°36'1013.8
2014-Apr-13 10:32N 51°51' E 003°22'1414.4
2014-Apr-13 09:33N 51°44' E 003°02'1413.7
2014-Apr-13 08:33N 51°34' E 002°47'1211.9
2014-Apr-13 07:33N 51°23' E 002°42'1515.0
2014-Apr-13 06:33N 51°24' E 003°06'5 5.2
2014-Apr-13 05:31N 51°20' E 003°12'0 0.0
2014-Apr-13 04:31N 51°20' E 003°12'0 0.0
2014-Apr-13 03:31N 51°20' E 003°12'0 0.0
2014-Apr-13 02:28N 51°20' E 003°12'0 0.0
2014-Apr-13 01:31N 51°20' E 003°12'0 0.0
2014-Apr-13 00:31N 51°20' E 003°12'0 0.0
2014-Apr-12 23:31N 51°20' E 003°12'0 0.0
2014-Apr-12 22:25N 51°20' E 003°12'0 0.0
2014-Apr-12 21:31N 51°20' E 003°12'0 0.0
2014-Apr-12 20:28N 51°20' E 003°12'0 0.0
2014-Apr-12 19:31N 51°20' E 003°12'0 0.0
2014-Apr-12 18:28N 51°20' E 003°12'0 0.0
2014-Apr-12 17:31N 51°20' E 003°12'0 0.0
2014-Apr-12 16:31N 51°20' E 003°12'0 0.0
2014-Apr-12 15:31N 51°20' E 003°12'0 0.0
2014-Apr-12 14:31N 51°20' E 003°12'0 0.0
2014-Apr-12 13:31N 51°20' E 003°12'0 0.0
2014-Apr-12 12:22N 51°20' E 003°12'0 0.0
2014-Apr-12 11:31N 51°20' E 003°12'0 0.0
2014-Apr-12 10:31N 51°20' E 003°12'0 0.0
2014-Apr-12 09:31N 51°20' E 003°12'0 0.0
2014-Apr-12 08:28N 51°20' E 003°12'0 0.0
2014-Apr-12 07:19N 51°20' E 003°12'1 1.9
2014-Apr-12 06:34N 51°21' E 003°12'1413.8
2014-Apr-12 05:33N 51°22' E 002°50'1111.1
2014-Apr-12 04:33N 51°32' E 002°42'1616.1
2014-Apr-12 03:33N 51°48' E 002°43'1615.3
2014-Apr-12 02:32N 52°03' E 002°50'1515.3
2014-Apr-12 01:33N 52°15' E 003°03'1515.1
2014-Apr-12 00:33N 52°28' E 003°17'1515.2
2014-Apr-11 23:33N 52°40' E 003°32'1616.0
2014-Apr-11 22:32N 52°52' E 003°50'1716.8
2014-Apr-11 21:30N 53°04' E 004°11'1516.2
2014-Apr-11 20:33N 53°16' E 004°27'1615.5
2014-Apr-11 19:31N 53°29' E 004°43'1616.1
2014-Apr-11 18:33N 53°35' E 005°07'1515.1
2014-Apr-11 17:33N 53°40' E 005°31'1515.0
2014-Apr-11 16:33N 53°45' E 005°55'1615.2
2014-Apr-11 15:29N 53°50' E 006°22'1516.1
2014-Apr-11 14:34N 53°54' E 006°46'1716.7
2014-Apr-11 13:33N 53°58' E 007°13'1716.7
2014-Apr-11 12:33N 54°01' E 007°41'1111.4
2014-Apr-11 11:33N 54°01' E 008°00'1312.9
2014-Apr-11 10:34N 53°60' E 008°22'1615.7
2014-Apr-11 09:34N 53°51' E 008°45'1413.6
2014-Apr-11 08:33N 53°53' E 009°08'1 1.3
2014-Apr-11 07:33N 53°54' E 009°09'6 6.5
2014-Apr-11 06:33N 53°59' E 009°17'7 6.8
2014-Apr-11 05:33N 54°05' E 009°19'4 3.7
2014-Apr-11 04:33N 54°09' E 009°22'6 5.7
2014-Apr-11 03:33N 54°11' E 009°31'3 3.4
2014-Apr-11 02:33N 54°13' E 009°36'4 4.0
2014-Apr-11 01:33N 54°17' E 009°38'57 5.7
2014-Apr-10 15:33N 54°36' E 011°10'1515.5
2014-Apr-10 14:33N 54°30' E 011°35'1515.4
2014-Apr-10 13:33N 54°27' E 012°00'1313.3
2014-Apr-10 12:34N 54°37' E 012°16'1615.6
2014-Apr-10 11:33N 54°46' E 012°38'1615.9
2014-Apr-10 10:33N 54°52' E 013°03'1616.0
2014-Apr-10 09:33N 54°58' E 013°29'1616.0
2014-Apr-10 08:33N 55°03' E 013°55'1615.8
2014-Apr-10 07:33N 55°13' E 014°16'1616.2
2014-Apr-10 06:33N 55°25' E 014°35'1616.0
2014-Apr-10 05:33N 55°34' E 014°58'1816.3
2014-Apr-10 04:26N 55°44' E 015°26'1516.8
2014-Apr-10 03:33N 55°52' E 015°49'1716.8
2014-Apr-10 02:33N 55°60' E 016°15'30615.8
2014-Apr-09 07:12N 59°35' E 023°03'1116.3
2014-Apr-09 06:33N 59°38' E 023°23'1716.5
2014-Apr-09 05:33N 59°43' E 023°54'1616.3
2014-Apr-09 04:33N 59°48' E 024°25'1616.2
2014-Apr-09 03:33N 59°51' E 024°57'4816.1
2014-Apr-09 00:33N 60°01' E 026°31'11013.7
2014-Apr-08 16:33N 59°53' E 030°10'2 2.0
2014-Apr-08 15:32N 59°53' E 030°13'0 0.0
2014-Apr-08 14:29N 59°53' E 030°13'0 0.0
2014-Apr-08 13:29N 59°53' E 030°13'0 0.0
2014-Apr-08 12:23N 59°53' E 030°13'0 0.0
2014-Apr-08 11:29N 59°53' E 030°13'0 0.0
2014-Apr-08 10:20N 59°53' E 030°13'0 0.0
2014-Apr-08 07:17N 59°53' E 030°13'0 0.0
2014-Apr-08 06:23N 59°53' E 030°13'0 0.0
2014-Apr-08 04:17N 59°53' E 030°13'0 0.0
2014-Apr-08 03:26N 59°53' E 030°13'0 0.0
2014-Apr-08 01:29N 59°53' E 030°13'  

Dump ship's entire track history

sailing weather and tide predictions

Fesco Vladimir — 5BSL2 — position and weather